Time;durP1;ratioP1;P1;durP2;ratioP2;P2;SDS_P1;SDS_P2;PMS_P1;PMS_P2;Temp;Humidity;BMP_temperature;BMP_pressure;BME280_temperature;BME280_humidity;BME280_pressure;Samples;Min_cycle;Max_cycle;Signal;HPM_P1;HPM_P2
2021/03/16 00:00:51;;;;;;;;;;;4.60;99.90;;;;;;4957049;28;19914;-73
2021/03/16 00:03:18;;;;;;;;;;;4.60;99.90;;;;;;4956671;28;19926;-73
2021/03/16 00:05:46;;;;;;;;;;;4.60;99.90;;;;;;4956540;28;19945;-73
2021/03/16 00:08:12;;;;;;;;;;;4.70;99.90;;;;;;4957072;28;19925;-74
2021/03/16 00:10:37;;;;;;;;;;;4.70;99.90;;;;;;4936070;28;19918;-73
2021/03/16 00:13:05;;;;;;;;;;;4.70;99.90;;;;;;4956712;28;19914;-73
2021/03/16 00:15:30;;;;;;;;;;;4.70;99.90;;;;;;4956914;28;19914;-74
2021/03/16 00:17:56;;;;;;;;;;;4.70;99.90;;;;;;4956507;28;20025;-74
2021/03/16 00:20:21;;;;;;;;;;;4.70;99.90;;;;;;4957213;28;19977;-73
2021/03/16 00:22:49;;;;;;;;;;;4.70;99.90;;;;;;4957974;28;20378;-74
2021/03/16 00:25:17;;;;;;;;;;;4.70;99.90;;;;;;4939637;28;20655;-73
2021/03/16 00:27:43;;;;;;;;;;;4.70;99.90;;;;;;4939600;28;19977;-74
2021/03/16 00:30:09;;;;;;;;;;;4.70;99.90;;;;;;4922522;28;20292;-74
2021/03/16 00:32:36;;;;;;;;;;;4.70;99.90;;;;;;4956927;28;19973;-74
2021/03/16 00:35:04;;;;;;;;;;;4.70;99.90;;;;;;4961357;28;19918;-73
2021/03/16 00:37:30;;;;;;;;;;;4.70;99.90;;;;;;4960389;28;20459;-73
2021/03/16 00:39:56;;;;;;;;;;;4.70;99.90;;;;;;4960732;28;19918;-74
2021/03/16 00:42:21;;;;;;;;;;;4.70;99.90;;;;;;4943541;28;19922;-74
2021/03/16 00:44:49;;;;;;;;;;;4.70;99.90;;;;;;4941949;28;19929;-74
2021/03/16 00:47:14;;;;;;;;;;;4.70;99.90;;;;;;4960479;28;20339;-73
2021/03/16 00:49:40;;;;;;;;;;;4.60;99.90;;;;;;4965816;28;19969;-74
2021/03/16 00:52:06;;;;;;;;;;;4.60;99.90;;;;;;4971061;28;19914;-73
2021/03/16 00:54:31;;;;;;;;;;;4.60;99.90;;;;;;4932091;28;19920;-73
2021/03/16 00:56:59;;;;;;;;;;;4.60;99.90;;;;;;4943486;28;19973;-73
2021/03/16 00:59:25;;;;;;;;;;;4.60;99.90;;;;;;4971965;28;19980;-74
2021/03/16 01:01:50;;;;;;;;;;;4.60;99.90;;;;;;4954511;28;19930;-73
2021/03/16 01:04:18;;;;;;;;;;;4.60;99.90;;;;;;4972501;28;19914;-73
2021/03/16 01:06:44;;;;;;;;;;;4.50;99.90;;;;;;4971892;28;19992;-74
2021/03/16 01:09:12;;;;;;;;;;;4.50;99.90;;;;;;4972134;28;19914;-73
2021/03/16 01:11:37;;;;;;;;;;;4.50;99.90;;;;;;4954014;28;19910;-73
2021/03/16 01:14:05;;;;;;;;;;;4.50;99.90;;;;;;4969164;28;19920;-74
2021/03/16 01:16:30;;;;;;;;;;;4.50;99.90;;;;;;4959091;28;19953;-74
2021/03/16 01:18:56;;;;;;;;;;;4.50;99.90;;;;;;4967159;28;19958;-73
2021/03/16 01:21:21;;;;;;;;;;;4.50;99.90;;;;;;4971646;28;19976;-74
2021/03/16 01:23:47;;;;;;;;;;;4.50;99.90;;;;;;4961564;28;19925;-74
2021/03/16 01:26:12;;;;;;;;;;;4.50;99.90;;;;;;4971363;28;19910;-73
2021/03/16 01:28:38;;;;;;;;;;;4.50;99.90;;;;;;4969488;28;19925;-74
2021/03/16 01:31:04;;;;;;;;;;;4.50;99.90;;;;;;4960317;28;20037;-73
2021/03/16 01:33:29;;;;;;;;;;;4.50;99.90;;;;;;4954145;28;19977;-73
2021/03/16 01:35:57;;;;;;;;;;;4.50;99.90;;;;;;4959440;28;20560;-74
2021/03/16 01:38:23;;;;;;;;;;;4.50;99.90;;;;;;4958561;28;19941;-74
2021/03/16 01:40:48;;;;;;;;;;;4.50;99.90;;;;;;4941522;28;19918;-73
2021/03/16 01:43:18;;;;;;;;;;;4.50;99.90;;;;;;4959085;28;19948;-73
2021/03/16 01:45:44;;;;;;;;;;;4.50;99.90;;;;;;4941318;28;19925;-74
2021/03/16 01:48:10;;;;;;;;;;;4.50;99.90;;;;;;4958283;28;19918;-74
2021/03/16 01:50:38;;;;;;;;;;;4.50;99.90;;;;;;4949409;28;20025;-73
2021/03/16 01:53:06;;;;;;;;;;;4.50;99.90;;;;;;4953403;28;19920;-74
2021/03/16 01:55:32;;;;;;;;;;;4.50;99.90;;;;;;4947057;28;19925;-73
2021/03/16 01:58:00;;;;;;;;;;;4.50;99.90;;;;;;4963241;28;19966;-73
2021/03/16 02:00:36;;;;;;;;;;;4.50;99.90;;;;;;4971453;28;19917;-73
2021/03/16 02:03:02;;;;;;;;;;;4.50;99.90;;;;;;4945638;28;20766;-73
2021/03/16 02:05:28;;;;;;;;;;;4.50;99.90;;;;;;4942102;28;19917;-73
2021/03/16 02:08:05;;;;;;;;;;;4.50;99.90;;;;;;4958703;28;19921;-74
2021/03/16 02:10:38;;;;;;;;;;;4.60;99.90;;;;;;4958855;28;20064;-74
2021/03/16 02:13:07;;;;;;;;;;;4.50;99.90;;;;;;4940680;28;19918;-74
2021/03/16 02:15:33;;;;;;;;;;;4.50;99.90;;;;;;4931024;28;20375;-74
2021/03/16 02:17:59;;;;;;;;;;;4.50;99.90;;;;;;4970807;28;20536;-73
2021/03/16 02:20:33;;;;;;;;;;;4.50;99.90;;;;;;4936417;28;19960;-74
2021/03/16 02:23:01;;;;;;;;;;;4.50;99.90;;;;;;4958528;28;19922;-74
2021/03/16 02:25:45;;;;;;;;;;;4.60;99.90;;;;;;4936688;28;19921;-73
2021/03/16 02:28:17;;;;;;;;;;;4.60;99.90;;;;;;4941030;28;19997;-73
2021/03/16 02:30:45;;;;;;;;;;;4.60;99.90;;;;;;4941175;28;19918;-74
2021/03/16 02:33:11;;;;;;;;;;;4.60;99.90;;;;;;4937038;28;19918;-74
2021/03/16 02:35:38;;;;;;;;;;;4.60;99.90;;;;;;4958297;28;19941;-74
2021/03/16 02:38:06;;;;;;;;;;;4.60;99.90;;;;;;4959125;28;19997;-74
2021/03/16 02:40:31;;;;;;;;;;;4.50;99.90;;;;;;4941086;28;19976;-74
2021/03/16 02:42:57;;;;;;;;;;;4.50;99.90;;;;;;4957377;28;19926;-74
2021/03/16 02:45:25;;;;;;;;;;;4.50;99.90;;;;;;4937457;28;19964;-74
2021/03/16 02:47:50;;;;;;;;;;;4.50;99.90;;;;;;4944688;28;19925;-73
2021/03/16 02:50:16;;;;;;;;;;;4.50;99.90;;;;;;4951781;28;19925;-74
2021/03/16 02:52:46;;;;;;;;;;;4.50;99.90;;;;;;4952738;28;19910;-73
2021/03/16 02:55:12;;;;;;;;;;;4.50;99.90;;;;;;4952337;28;19956;-74
2021/03/16 02:57:38;;;;;;;;;;;4.50;99.90;;;;;;4947976;28;19950;-73
2021/03/16 03:00:04;;;;;;;;;;;4.50;99.90;;;;;;4951053;28;19918;-74
2021/03/16 03:02:29;;;;;;;;;;;4.50;99.90;;;;;;4951621;28;20264;-73
2021/03/16 03:04:55;;;;;;;;;;;4.50;99.90;;;;;;4948381;28;19918;-74
2021/03/16 03:07:21;;;;;;;;;;;4.40;99.90;;;;;;4958183;28;20423;-74
2021/03/16 03:09:46;;;;;;;;;;;4.40;99.90;;;;;;4938274;28;19929;-74
2021/03/16 03:12:12;;;;;;;;;;;4.40;99.90;;;;;;4936039;28;19925;-74
2021/03/16 03:14:40;;;;;;;;;;;4.40;99.90;;;;;;4959305;28;19925;-73
2021/03/16 03:17:05;;;;;;;;;;;4.40;99.90;;;;;;4968613;28;19953;-74
2021/03/16 03:19:31;;;;;;;;;;;4.30;99.90;;;;;;4968123;28;19972;-73
2021/03/16 03:22:15;;;;;;;;;;;4.30;99.90;;;;;;4958203;28;19972;-73
2021/03/16 03:24:45;;;;;;;;;;;4.30;99.90;;;;;;4957161;28;19918;-73
2021/03/16 03:27:14;;;;;;;;;;;4.30;99.90;;;;;;4940451;28;20384;-74
2021/03/16 03:29:40;;;;;;;;;;;4.30;99.90;;;;;;4937912;28;19937;-73
2021/03/16 03:32:08;;;;;;;;;;;4.30;99.90;;;;;;4957135;28;20423;-74
2021/03/16 03:34:34;;;;;;;;;;;4.40;99.90;;;;;;4935483;28;19929;-75
2021/03/16 03:37:02;;;;;;;;;;;4.40;99.90;;;;;;4923002;28;19928;-73
2021/03/16 03:39:30;;;;;;;;;;;4.40;99.90;;;;;;4938888;28;19914;-73
2021/03/16 03:41:56;;;;;;;;;;;4.40;99.90;;;;;;4936167;28;19922;-74
2021/03/16 03:44:24;;;;;;;;;;;4.40;99.90;;;;;;4957747;28;20291;-74
2021/03/16 03:46:49;;;;;;;;;;;4.40;99.90;;;;;;4939728;28;19937;-74
2021/03/16 03:49:15;;;;;;;;;;;4.40;99.90;;;;;;4957143;28;20352;-74
2021/03/16 03:51:40;;;;;;;;;;;4.40;99.90;;;;;;4933994;28;19914;-74
2021/03/16 03:54:08;;;;;;;;;;;4.40;99.90;;;;;;4939419;28;19918;-74
2021/03/16 03:56:34;;;;;;;;;;;4.40;99.90;;;;;;4938445;28;19918;-74
2021/03/16 03:59:00;;;;;;;;;;;4.30;99.90;;;;;;4939942;28;20455;-74
2021/03/16 04:01:26;;;;;;;;;;;4.40;99.90;;;;;;4934867;28;19954;-73
2021/03/16 04:03:51;;;;;;;;;;;4.40;99.90;;;;;;4935789;28;19938;-74
2021/03/16 04:06:17;;;;;;;;;;;4.40;99.90;;;;;;4935678;28;19918;-73
2021/03/16 04:08:42;;;;;;;;;;;4.40;99.90;;;;;;4940777;28;19918;-73
2021/03/16 04:11:11;;;;;;;;;;;4.40;99.90;;;;;;4946015;28;19937;-74
2021/03/16 04:13:38;;;;;;;;;;;4.30;99.90;;;;;;4955949;28;19914;-74
2021/03/16 04:16:04;;;;;;;;;;;4.40;99.90;;;;;;4949343;28;19922;-73
2021/03/16 04:18:32;;;;;;;;;;;4.30;99.90;;;;;;4928571;28;19918;-73
2021/03/16 04:20:58;;;;;;;;;;;4.30;99.90;;;;;;4939946;28;20774;-73
2021/03/16 04:23:23;;;;;;;;;;;4.30;99.90;;;;;;4943174;28;19918;-73
2021/03/16 04:25:51;;;;;;;;;;;4.20;99.90;;;;;;4926029;28;20347;-73
2021/03/16 04:28:17;;;;;;;;;;;4.30;99.90;;;;;;4939401;28;19965;-74
2021/03/16 04:30:45;;;;;;;;;;;4.30;99.90;;;;;;4961078;28;20844;-73
2021/03/16 04:33:10;;;;;;;;;;;4.20;99.90;;;;;;4970910;28;19910;-73
2021/03/16 04:35:36;;;;;;;;;;;4.20;99.90;;;;;;4971995;28;20302;-74
2021/03/16 04:38:01;;;;;;;;;;;4.20;99.90;;;;;;4972841;28;20351;-74
2021/03/16 04:40:27;;;;;;;;;;;4.20;99.90;;;;;;4972602;28;20391;-73
2021/03/16 04:42:52;;;;;;;;;;;4.20;99.90;;;;;;4972491;28;19914;-75
2021/03/16 04:45:20;;;;;;;;;;;4.30;99.90;;;;;;4965621;28;20336;-74
2021/03/16 04:47:46;;;;;;;;;;;4.30;99.90;;;;;;4961047;28;19918;-73
2021/03/16 04:50:11;;;;;;;;;;;4.30;99.90;;;;;;4961018;28;19917;-74
2021/03/16 04:52:37;;;;;;;;;;;4.40;99.90;;;;;;4943213;28;19918;-74
2021/03/16 04:55:02;;;;;;;;;;;4.30;99.90;;;;;;4941796;28;20339;-74
2021/03/16 04:57:28;;;;;;;;;;;4.40;99.90;;;;;;4960086;28;20398;-73
2021/03/16 04:59:53;;;;;;;;;;;4.40;99.90;;;;;;4945395;28;19914;-73
2021/03/16 05:02:19;;;;;;;;;;;4.50;99.90;;;;;;4944812;28;19926;-73
2021/03/16 05:04:47;;;;;;;;;;;4.50;99.90;;;;;;4959835;28;19925;-74
2021/03/16 05:07:12;;;;;;;;;;;4.50;99.90;;;;;;4959561;28;19921;-73
2021/03/16 05:09:40;;;;;;;;;;;4.50;99.90;;;;;;4943761;28;20354;-73
2021/03/16 05:12:06;;;;;;;;;;;4.50;99.90;;;;;;4971986;28;19910;-74
2021/03/16 05:14:32;;;;;;;;;;;4.50;99.90;;;;;;4943673;28;20308;-74
2021/03/16 05:16:57;;;;;;;;;;;4.50;99.90;;;;;;4958191;28;19947;-73
2021/03/16 05:19:25;;;;;;;;;;;4.50;99.90;;;;;;4941046;28;19921;-74
2021/03/16 05:21:50;;;;;;;;;;;4.50;99.90;;;;;;4944772;28;20539;-73
2021/03/16 05:24:18;;;;;;;;;;;4.50;99.90;;;;;;4961933;28;19922;-74
2021/03/16 05:26:46;;;;;;;;;;;4.50;99.90;;;;;;4971648;28;19918;-74
2021/03/16 05:29:11;;;;;;;;;;;4.50;99.90;;;;;;4966031;28;19914;-74
2021/03/16 05:31:37;;;;;;;;;;;4.50;99.90;;;;;;4959041;28;19929;-74
2021/03/16 05:34:02;;;;;;;;;;;4.50;99.90;;;;;;4961313;28;19920;-74
2021/03/16 05:36:28;;;;;;;;;;;4.50;99.90;;;;;;4970973;28;19955;-74
2021/03/16 05:38:56;;;;;;;;;;;4.50;99.90;;;;;;4954336;28;19910;-74
2021/03/16 05:41:21;;;;;;;;;;;4.50;99.90;;;;;;4953484;28;19910;-74
2021/03/16 05:43:47;;;;;;;;;;;4.50;99.90;;;;;;4971823;28;19914;-74
2021/03/16 05:46:13;;;;;;;;;;;4.50;99.90;;;;;;4970542;28;19910;-74
2021/03/16 05:48:38;;;;;;;;;;;4.60;99.90;;;;;;4961004;28;20002;-74
2021/03/16 05:51:04;;;;;;;;;;;4.60;99.90;;;;;;4958725;28;19925;-75
2021/03/16 05:53:32;;;;;;;;;;;4.60;99.90;;;;;;4938330;28;19918;-74
2021/03/16 05:56:01;;;;;;;;;;;4.60;99.90;;;;;;4943533;28;19929;-74
2021/03/16 05:58:26;;;;;;;;;;;4.60;99.90;;;;;;4959567;28;19917;-74
2021/03/16 06:00:52;;;;;;;;;;;4.60;99.90;;;;;;4937032;28;19926;-74
2021/03/16 06:03:17;;;;;;;;;;;4.60;99.90;;;;;;4959076;28;19930;-73
2021/03/16 06:05:43;;;;;;;;;;;4.60;99.90;;;;;;4959028;28;20009;-74
2021/03/16 06:08:08;;;;;;;;;;;4.60;99.90;;;;;;4958707;28;20033;-73
2021/03/16 06:10:36;;;;;;;;;;;4.60;99.90;;;;;;4958139;28;20014;-73
2021/03/16 06:13:11;;;;;;;;;;;4.60;99.90;;;;;;4941418;28;20368;-73
2021/03/16 06:15:37;;;;;;;;;;;4.60;99.90;;;;;;4970405;28;19914;-74
2021/03/16 06:18:02;;;;;;;;;;;4.60;99.90;;;;;;4971623;28;19920;-74
2021/03/16 06:20:29;;;;;;;;;;;4.50;99.90;;;;;;4966552;28;19956;-74
2021/03/16 06:23:10;;;;;;;;;;;4.60;99.90;;;;;;4958553;28;20005;-74
2021/03/16 06:25:39;;;;;;;;;;;4.60;99.90;;;;;;4941037;28;19925;-74
2021/03/16 06:28:06;;;;;;;;;;;4.60;99.90;;;;;;4959431;28;20376;-74
2021/03/16 06:30:31;;;;;;;;;;;4.60;99.90;;;;;;4952392;28;20004;-73
2021/03/16 06:32:57;;;;;;;;;;;4.60;99.90;;;;;;4969936;28;19997;-74
2021/03/16 06:35:23;;;;;;;;;;;4.60;99.90;;;;;;4946989;28;19925;-74
2021/03/16 06:38:01;;;;;;;;;;;4.60;99.90;;;;;;4946469;28;20433;-73
2021/03/16 06:40:30;;;;;;;;;;;4.60;99.90;;;;;;4959793;28;20455;-74
2021/03/16 06:43:02;;;;;;;;;;;4.60;98.20;;;;;;4957576;28;20324;-73
2021/03/16 06:45:34;;;;;;;;;;;4.60;99.20;;;;;;4958019;28;19918;-74
2021/03/16 06:48:00;;;;;;;;;;;4.60;99.90;;;;;;4957361;28;19910;-74
2021/03/16 06:50:29;;;;;;;;;;;4.60;99.90;;;;;;4939020;28;20387;-74
2021/03/16 06:52:57;;;;;;;;;;;4.60;99.50;;;;;;4967686;28;19981;-73
2021/03/16 06:55:23;;;;;;;;;;;4.60;99.70;;;;;;4968900;28;19910;-74
2021/03/16 06:57:51;;;;;;;;;;;4.70;99.90;;;;;;4969996;28;19980;-74
2021/03/16 07:00:19;;;;;;;;;;;4.70;99.90;;;;;;4969079;28;20005;-74
2021/03/16 07:02:45;;;;;;;;;;;4.70;99.90;;;;;;4962752;28;20001;-73
2021/03/16 07:05:13;;;;;;;;;;;4.70;99.90;;;;;;4939914;28;20328;-74
2021/03/16 07:07:41;;;;;;;;;;;4.80;99.90;;;;;;4959422;28;19969;-74
2021/03/16 07:10:09;;;;;;;;;;;4.80;99.90;;;;;;4936582;28;19980;-78
2021/03/16 07:12:37;;;;;;;;;;;4.80;99.90;;;;;;4969502;28;20009;-77
2021/03/16 07:15:03;;;;;;;;;;;4.80;99.90;;;;;;4942692;28;19914;-73
2021/03/16 07:17:29;;;;;;;;;;;4.90;99.90;;;;;;4960199;28;20343;-73
2021/03/16 07:20:05;;;;;;;;;;;4.80;99.90;;;;;;4958621;28;19993;-73
2021/03/16 07:22:32;;;;;;;;;;;4.80;99.90;;;;;;4951435;28;19929;-73
2021/03/16 07:25:00;;;;;;;;;;;4.80;99.90;;;;;;4948433;28;19950;-73
2021/03/16 07:27:25;;;;;;;;;;;4.90;99.90;;;;;;4948674;28;19925;-73
2021/03/16 07:29:53;;;;;;;;;;;4.90;99.90;;;;;;4946939;28;19910;-73
2021/03/16 07:32:19;;;;;;;;;;;4.90;99.90;;;;;;4922227;28;19922;-73
2021/03/16 07:34:44;;;;;;;;;;;4.90;99.90;;;;;;4962532;28;19910;-73
2021/03/16 07:37:10;;;;;;;;;;;4.90;99.90;;;;;;4948410;28;19918;-73
2021/03/16 07:39:36;;;;;;;;;;;5.00;99.90;;;;;;4966252;28;20270;-74
2021/03/16 07:42:01;;;;;;;;;;;5.10;99.90;;;;;;4950200;28;20390;-74
2021/03/16 07:44:27;;;;;;;;;;;5.10;99.90;;;;;;4953224;28;19928;-78
2021/03/16 07:46:59;;;;;;;;;;;5.10;99.90;;;;;;4972581;28;20558;-74
2021/03/16 07:49:40;;;;;;;;;;;5.10;99.90;;;;;;4954970;28;19914;-74
2021/03/16 07:52:16;;;;;;;;;;;5.10;99.90;;;;;;4952663;28;20367;-73
2021/03/16 07:54:45;;;;;;;;;;;5.10;99.90;;;;;;4972358;28;19982;-73
2021/03/16 07:57:10;;;;;;;;;;;5.10;99.90;;;;;;4970795;28;19997;-74
2021/03/16 07:59:36;;;;;;;;;;;5.10;99.90;;;;;;4951322;28;19913;-74
2021/03/16 08:02:02;;;;;;;;;;;5.20;99.90;;;;;;4971396;28;19929;-73
2021/03/16 08:04:34;;;;;;;;;;;5.20;99.90;;;;;;4971576;28;19921;-74
2021/03/16 08:07:05;;;;;;;;;;;5.20;99.90;;;;;;4972136;28;19910;-73
2021/03/16 08:09:31;;;;;;;;;;;5.20;99.90;;;;;;4954483;28;19976;-73
2021/03/16 08:11:56;;;;;;;;;;;5.20;99.60;;;;;;4935587;28;19922;-74
2021/03/16 08:14:26;;;;;;;;;;;5.20;99.40;;;;;;4954317;28;19925;-74
2021/03/16 08:16:56;;;;;;;;;;;5.20;99.90;;;;;;4971213;28;19917;-73
2021/03/16 08:19:42;;;;;;;;;;;5.20;99.30;;;;;;4951614;28;19911;-73
2021/03/16 08:22:10;;;;;;;;;;;5.30;99.90;;;;;;4970549;28;19917;-74
2021/03/16 08:24:39;;;;;;;;;;;5.30;99.90;;;;;;4950651;28;20017;-73
2021/03/16 08:27:25;;;;;;;;;;;5.30;99.90;;;;;;4955281;28;19933;-74
2021/03/16 08:29:53;;;;;;;;;;;5.40;99.90;;;;;;4972177;28;19910;-73
2021/03/16 08:32:19;;;;;;;;;;;5.50;99.90;;;;;;4971798;28;19916;-73
2021/03/16 08:34:47;;;;;;;;;;;5.60;99.90;;;;;;4953510;28;19917;-74
2021/03/16 08:37:19;;;;;;;;;;;5.70;99.90;;;;;;4970553;28;19910;-74
2021/03/16 08:39:45;;;;;;;;;;;5.70;99.90;;;;;;4970526;28;20502;-74
2021/03/16 08:42:13;;;;;;;;;;;5.70;99.90;;;;;;4971279;28;19925;-74
2021/03/16 08:44:43;;;;;;;;;;;5.70;99.50;;;;;;4952873;28;20025;-74
2021/03/16 08:47:15;;;;;;;;;;;5.60;99.80;;;;;;4970550;28;19957;-74
2021/03/16 08:49:45;;;;;;;;;;;5.70;99.90;;;;;;4954796;28;20008;-74
2021/03/16 08:52:14;;;;;;;;;;;5.70;99.90;;;;;;4971752;28;19917;-74
2021/03/16 08:54:40;;;;;;;;;;;5.70;98.40;;;;;;4953198;28;19918;-74
2021/03/16 08:57:05;;;;;;;;;;;5.70;99.40;;;;;;4971030;28;20373;-73
2021/03/16 08:59:31;;;;;;;;;;;5.60;97.80;;;;;;4954266;28;20008;-74
2021/03/16 09:01:57;;;;;;;;;;;5.60;98.70;;;;;;4938537;28;19929;-74
2021/03/16 09:04:24;;;;;;;;;;;5.60;98.60;;;;;;4955187;28;19949;-74
2021/03/16 09:06:52;;;;;;;;;;;5.70;97.70;;;;;;4970569;28;19914;-74
2021/03/16 09:09:24;;;;;;;;;;;5.80;99.80;;;;;;4954511;28;20382;-74
2021/03/16 09:11:50;;;;;;;;;;;5.90;96.20;;;;;;4970463;28;20267;-74
2021/03/16 09:14:19;;;;;;;;;;;6.00;99.90;;;;;;4954146;28;19925;-74
2021/03/16 09:16:45;;;;;;;;;;;6.20;99.90;;;;;;4970189;28;20044;-74
2021/03/16 09:19:11;;;;;;;;;;;6.40;95.00;;;;;;4971792;28;19918;-74
2021/03/16 09:21:37;;;;;;;;;;;6.50;93.30;;;;;;4971540;28;19929;-74
2021/03/16 09:24:04;;;;;;;;;;;6.50;94.10;;;;;;4970943;28;19918;-75
2021/03/16 09:26:30;;;;;;;;;;;6.60;94.80;;;;;;4970892;28;19910;-74
2021/03/16 09:28:55;;;;;;;;;;;6.70;94.20;;;;;;4970555;28;19968;-74
2021/03/16 09:31:22;;;;;;;;;;;6.70;91.70;;;;;;4934461;28;19914;-74
2021/03/16 09:33:47;;;;;;;;;;;6.80;91.10;;;;;;4954436;28;19917;-74
2021/03/16 09:36:13;;;;;;;;;;;6.70;88.00;;;;;;4954898;28;19917;-74
2021/03/16 09:38:38;;;;;;;;;;;6.70;88.20;;;;;;4952213;28;19968;-74
2021/03/16 09:41:08;;;;;;;;;;;6.60;88.00;;;;;;4968333;28;19977;-74
2021/03/16 09:43:36;;;;;;;;;;;6.60;87.90;;;;;;4952931;28;20001;-74
2021/03/16 09:46:04;;;;;;;;;;;6.70;93.30;;;;;;4969344;28;19918;-74
2021/03/16 09:48:30;;;;;;;;;;;6.70;91.80;;;;;;4970723;28;19988;-74
2021/03/16 09:51:08;;;;;;;;;;;6.80;90.80;;;;;;4969416;28;19998;-74
2021/03/16 09:53:34;;;;;;;;;;;6.80;91.50;;;;;;4970636;28;19914;-75
2021/03/16 09:56:00;;;;;;;;;;;6.80;92.90;;;;;;4970721;28;20283;-74
2021/03/16 09:58:28;;;;;;;;;;;6.90;89.80;;;;;;4969883;28;19956;-77
2021/03/16 10:00:54;;;;;;;;;;;7.00;90.60;;;;;;4953568;28;19921;-74
2021/03/16 10:03:19;;;;;;;;;;;7.00;86.40;;;;;;4970869;28;19926;-74
2021/03/16 10:05:51;;;;;;;;;;;7.00;85.00;;;;;;4969423;28;19953;-74
2021/03/16 10:08:25;;;;;;;;;;;7.00;87.70;;;;;;4948600;28;19914;-74
2021/03/16 10:10:51;;;;;;;;;;;7.10;89.50;;;;;;4953564;28;19953;-73
2021/03/16 10:13:18;;;;;;;;;;;7.10;87.30;;;;;;4970577;28;20053;-74
2021/03/16 10:15:44;;;;;;;;;;;7.10;87.10;;;;;;4969250;28;19928;-74
2021/03/16 10:18:11;;;;;;;;;;;7.20;86.80;;;;;;4969446;28;19910;-74
2021/03/16 10:20:40;;;;;;;;;;;7.20;89.20;;;;;;4969551;28;19910;-74
2021/03/16 10:23:26;;;;;;;;;;;7.30;87.90;;;;;;4969457;28;19921;-74
2021/03/16 10:25:57;;;;;;;;;;;7.40;90.80;;;;;;4969264;28;19941;-74
2021/03/16 10:28:34;;;;;;;;;;;7.50;86.30;;;;;;4968298;28;19993;-75
2021/03/16 10:31:09;;;;;;;;;;;7.60;89.20;;;;;;4965345;28;19920;-74
2021/03/16 10:33:39;;;;;;;;;;;7.70;86.20;;;;;;4968578;28;19910;-74
2021/03/16 10:36:07;;;;;;;;;;;7.80;87.50;;;;;;4949264;28;19914;-74
2021/03/16 10:38:33;;;;;;;;;;;7.90;85.40;;;;;;4969082;28;20459;-73
2021/03/16 10:40:58;;;;;;;;;;;8.10;87.00;;;;;;4950584;28;19969;-74
2021/03/16 10:43:26;;;;;;;;;;;8.20;84.30;;;;;;4951099;28;20391;-74
2021/03/16 10:45:55;;;;;;;;;;;8.30;86.90;;;;;;4952892;28;20113;-74
2021/03/16 10:48:21;;;;;;;;;;;8.40;80.80;;;;;;4969851;28;19918;-74
2021/03/16 10:50:47;;;;;;;;;;;8.40;79.60;;;;;;4950630;28;20591;-74
2021/03/16 10:53:13;;;;;;;;;;;8.50;78.60;;;;;;4950654;28;19919;-74
2021/03/16 10:55:39;;;;;;;;;;;8.50;79.10;;;;;;4969319;28;19918;-74
2021/03/16 10:58:04;;;;;;;;;;;8.60;84.10;;;;;;4947669;28;19972;-74
2021/03/16 11:00:32;;;;;;;;;;;8.70;76.60;;;;;;4969428;28;19918;-74
2021/03/16 11:02:57;;;;;;;;;;;8.80;76.50;;;;;;4966433;28;20090;-74
2021/03/16 11:05:25;;;;;;;;;;;8.80;74.50;;;;;;4967280;28;20604;-74
2021/03/16 11:07:51;;;;;;;;;;;8.70;74.20;;;;;;4966812;28;19976;-75
2021/03/16 11:10:19;;;;;;;;;;;8.70;76.00;;;;;;4953276;28;20177;-74
2021/03/16 11:12:45;;;;;;;;;;;8.70;76.50;;;;;;4969783;28;19913;-74
2021/03/16 11:15:10;;;;;;;;;;;8.60;75.50;;;;;;4950299;28;19914;-74
2021/03/16 11:17:36;;;;;;;;;;;8.60;77.20;;;;;;4968645;28;20527;-75
2021/03/16 11:20:04;;;;;;;;;;;8.50;75.50;;;;;;4950559;28;19913;-74
2021/03/16 11:22:32;;;;;;;;;;;8.50;76.10;;;;;;4949034;28;19973;-74
2021/03/16 11:24:58;;;;;;;;;;;8.40;76.00;;;;;;4969112;28;19957;-74
2021/03/16 11:27:23;;;;;;;;;;;8.30;77.00;;;;;;4968947;28;19965;-75
2021/03/16 11:29:49;;;;;;;;;;;8.50;80.50;;;;;;4951580;28;19933;-74
2021/03/16 11:32:14;;;;;;;;;;;8.50;76.90;;;;;;4949984;28;19918;-74
2021/03/16 11:34:44;;;;;;;;;;;8.70;78.90;;;;;;4968399;28;19910;-73
2021/03/16 11:37:09;;;;;;;;;;;8.80;76.00;;;;;;4969088;28;20378;-74
2021/03/16 11:39:35;;;;;;;;;;;8.80;74.10;;;;;;4967122;28;19957;-74
2021/03/16 11:42:00;;;;;;;;;;;8.70;76.30;;;;;;4968719;28;20367;-74
2021/03/16 11:44:26;;;;;;;;;;;8.80;79.40;;;;;;4950980;28;19910;-75
2021/03/16 11:46:52;;;;;;;;;;;8.80;79.20;;;;;;4950420;28;19918;-74
2021/03/16 11:49:17;;;;;;;;;;;8.70;77.10;;;;;;4933055;28;19914;-74
2021/03/16 11:51:43;;;;;;;;;;;8.50;78.10;;;;;;4952936;28;20005;-74
2021/03/16 11:54:08;;;;;;;;;;;8.40;79.10;;;;;;4967811;28;19920;-74
2021/03/16 11:56:34;;;;;;;;;;;8.40;83.20;;;;;;4969014;28;19917;-75
2021/03/16 11:59:04;;;;;;;;;;;8.60;84.10;;;;;;4952044;28;20376;-74
2021/03/16 12:01:30;;;;;;;;;;;8.80;82.70;;;;;;4964425;28;19969;-75
2021/03/16 12:03:55;;;;;;;;;;;9.10;87.30;;;;;;4968351;28;19925;-75
2021/03/16 12:06:21;;;;;;;;;;;9.30;84.70;;;;;;4948153;28;19922;-75
2021/03/16 12:08:46;;;;;;;;;;;9.60;78.70;;;;;;4951426;28;19918;-74
2021/03/16 12:11:12;;;;;;;;;;;9.80;75.50;;;;;;4969233;28;19960;-76
2021/03/16 12:13:41;;;;;;;;;;;9.80;74.90;;;;;;4968789;28;20006;-79
2021/03/16 12:16:09;;;;;;;;;;;9.70;75.70;;;;;;4932398;28;19918;-74
2021/03/16 12:18:34;;;;;;;;;;;9.80;71.40;;;;;;4968937;28;19941;-74
2021/03/16 12:21:02;;;;;;;;;;;9.80;69.20;;;;;;4969158;28;19914;-74
2021/03/16 12:23:28;;;;;;;;;;;10.00;72.10;;;;;;4969675;28;19918;-74
2021/03/16 12:25:54;;;;;;;;;;;10.00;67.60;;;;;;4968275;28;20386;-74
2021/03/16 12:28:22;;;;;;;;;;;9.90;68.50;;;;;;4951978;28;19969;-74
2021/03/16 12:30:48;;;;;;;;;;;10.00;71.30;;;;;;4972232;28;20056;-74
2021/03/16 12:33:13;;;;;;;;;;;10.00;69.90;;;;;;4971815;28;19914;-74
2021/03/16 12:35:39;;;;;;;;;;;9.80;69.40;;;;;;4971538;28;19910;-74
2021/03/16 12:38:05;;;;;;;;;;;9.60;68.10;;;;;;4970099;28;19920;-74
2021/03/16 12:40:31;;;;;;;;;;;9.50;71.30;;;;;;4950764;28;19910;-73
2021/03/16 12:42:58;;;;;;;;;;;9.40;71.10;;;;;;4936736;28;20007;-74
2021/03/16 12:45:26;;;;;;;;;;;9.50;72.50;;;;;;4971670;28;20073;-74
2021/03/16 12:47:52;;;;;;;;;;;9.30;70.90;;;;;;4954130;28;19968;-74
2021/03/16 12:50:17;;;;;;;;;;;9.20;71.30;;;;;;4971778;28;19910;-74
2021/03/16 12:52:43;;;;;;;;;;;9.10;73.70;;;;;;4972499;28;19914;-74
2021/03/16 12:55:12;;;;;;;;;;;8.90;69.80;;;;;;4954182;28;20405;-74
2021/03/16 12:57:37;;;;;;;;;;;8.80;71.40;;;;;;4953873;28;19918;-73
2021/03/16 13:00:06;;;;;;;;;;;8.60;72.50;;;;;;4971048;28;19929;-74
2021/03/16 13:02:32;;;;;;;;;;;8.40;75.10;;;;;;4971291;28;20058;-73
2021/03/16 13:05:00;;;;;;;;;;;8.30;78.10;;;;;;4969682;28;20344;-74
2021/03/16 13:07:25;;;;;;;;;;;8.30;83.60;;;;;;4971892;28;20284;-74
2021/03/16 13:09:53;;;;;;;;;;;8.20;83.60;;;;;;4971861;28;19910;-74
2021/03/16 13:12:19;;;;;;;;;;;8.10;83.50;;;;;;4953833;28;19909;-74
2021/03/16 13:14:44;;;;;;;;;;;8.10;84.20;;;;;;4952630;28;20256;-74
2021/03/16 13:17:10;;;;;;;;;;;8.10;83.20;;;;;;4950263;28;20363;-73
2021/03/16 13:19:36;;;;;;;;;;;8.10;81.80;;;;;;4954303;28;19921;-73
2021/03/16 13:22:01;;;;;;;;;;;8.30;82.50;;;;;;4938332;28;19918;-74
2021/03/16 13:24:29;;;;;;;;;;;8.40;83.20;;;;;;4954596;28;19918;-74
2021/03/16 13:26:55;;;;;;;;;;;8.60;83.90;;;;;;4954495;28;19909;-74
2021/03/16 13:29:21;;;;;;;;;;;8.70;79.90;;;;;;4954924;28;19910;-74
2021/03/16 13:31:46;;;;;;;;;;;8.80;77.70;;;;;;4970949;28;20348;-73
2021/03/16 13:34:14;;;;;;;;;;;8.90;77.50;;;;;;4949554;28;19977;-74
2021/03/16 13:36:40;;;;;;;;;;;9.10;78.40;;;;;;4970812;28;20400;-74
2021/03/16 13:39:07;;;;;;;;;;;9.20;76.60;;;;;;4969211;28;20008;-74
2021/03/16 13:41:35;;;;;;;;;;;9.30;73.90;;;;;;4952848;28;20358;-74
2021/03/16 13:44:01;;;;;;;;;;;9.30;76.20;;;;;;4970773;28;19918;-74
2021/03/16 13:46:27;;;;;;;;;;;9.30;74.40;;;;;;4971658;28;20318;-73
2021/03/16 13:48:52;;;;;;;;;;;9.30;73.80;;;;;;4970982;28;20304;-73
2021/03/16 13:51:20;;;;;;;;;;;9.20;72.60;;;;;;4936947;28;20438;-73
2021/03/16 13:53:46;;;;;;;;;;;9.10;75.90;;;;;;4970380;28;20264;-74
2021/03/16 13:56:11;;;;;;;;;;;9.10;75.70;;;;;;4970651;28;20008;-73
2021/03/16 13:58:39;;;;;;;;;;;9.10;77.40;;;;;;4970763;28;20332;-73
2021/03/16 14:01:05;;;;;;;;;;;8.90;72.80;;;;;;4952617;28;19972;-74
2021/03/16 14:03:31;;;;;;;;;;;8.80;73.70;;;;;;4970507;28;20403;-73
2021/03/16 14:05:57;;;;;;;;;;;8.90;77.10;;;;;;4952957;28;20009;-73
2021/03/16 14:08:23;;;;;;;;;;;8.80;73.60;;;;;;4952790;28;19910;-73
2021/03/16 14:10:49;;;;;;;;;;;8.70;72.40;;;;;;4970311;28;20355;-74
2021/03/16 14:13:14;;;;;;;;;;;8.60;74.00;;;;;;4970597;28;19918;-73
2021/03/16 14:15:40;;;;;;;;;;;8.40;73.40;;;;;;4970912;28;19921;-74
2021/03/16 14:18:05;;;;;;;;;;;8.40;75.10;;;;;;4951421;28;19957;-74
2021/03/16 14:20:32;;;;;;;;;;;8.20;75.20;;;;;;4969011;28;19910;-73
2021/03/16 14:22:57;;;;;;;;;;;8.10;75.40;;;;;;4938470;28;21502;-74
2021/03/16 14:25:23;;;;;;;;;;;8.00;75.10;;;;;;4952486;28;20340;-73
2021/03/16 14:27:49;;;;;;;;;;;7.90;75.00;;;;;;4969147;28;19977;-73
2021/03/16 14:30:14;;;;;;;;;;;7.90;75.60;;;;;;4946765;28;19918;-73